Time;durP1;ratioP1;P1;durP2;ratioP2;P2;SDS_P1;SDS_P2;PMS_P1;PMS_P2;Temp;Humidity;BMP_temperature;BMP_pressure;BME280_temperature;BME280_humidity;BME280_pressure;Samples;Min_cycle;Max_cycle;Signal;HPM_P1;HPM_P2
2022/01/27 00:05:18;;;;;;;1.13;0.17;;;;;;;;;;5015327;28;20137;-63
2022/01/27 00:07:44;;;;;;;1.70;0.30;;;;;;;;;;5015394;28;20040;-63
2022/01/27 00:10:41;;;;;;;0.47;0.10;;;;;;;;;;5015587;28;20018;-63
2022/01/27 00:13:09;;;;;;;0.75;0.20;;;;;;;;;;5015225;28;20036;-62
2022/01/27 00:15:34;;;;;;;0.65;0.20;;;;;;;;;;5015123;28;20028;-63
2022/01/27 00:18:03;;;;;;;1.08;0.10;;;;;;;;;;5015207;28;20097;-62
2022/01/27 00:20:28;;;;;;;1.63;0.63;;;;;;;;;;5014963;28;20513;-63
2022/01/27 00:22:53;;;;;;;2.15;0.55;;;;;;;;;;5015261;28;20097;-62
2022/01/27 00:25:19;;;;;;;1.05;0.20;;;;;;;;;;5015006;28;20382;-63
2022/01/27 00:27:44;;;;;;;1.08;0.20;;;;;;;;;;5015061;28;20034;-63
2022/01/27 00:30:09;;;;;;;0.40;0.00;;;;;;;;;;5015198;28;20017;-63
2022/01/27 00:32:35;;;;;;;1.00;0.20;;;;;;;;;;5014838;28;20282;-63
2022/01/27 00:35:01;;;;;;;0.93;0.17;;;;;;;;;;5013077;28;20118;-63
2022/01/27 00:37:26;;;;;;;0.93;0.10;;;;;;;;;;5014730;28;20036;-62
2022/01/27 00:39:51;;;;;;;0.68;0.20;;;;;;;;;;5014813;28;20026;-63
2022/01/27 00:42:17;;;;;;;1.33;0.20;;;;;;;;;;5014534;28;20026;-62
2022/01/27 00:44:42;;;;;;;2.35;0.20;;;;;;;;;;5014781;28;20286;-63
2022/01/27 00:47:07;;;;;;;1.08;0.32;;;;;;;;;;5014837;28;20133;-63
2022/01/27 00:49:33;;;;;;;0.93;0.20;;;;;;;;;;5014433;28;20116;-63
2022/01/27 00:52:00;;;;;;;0.80;0.20;;;;;;;;;;5014512;28;20037;-63
2022/01/27 00:54:28;;;;;;;0.40;0.10;;;;;;;;;;5014108;28;20025;-63
2022/01/27 00:57:06;;;;;;;0.82;0.20;;;;;;;;;;5014674;28;20021;-63
2022/01/27 01:02:13;;;;;;;0.75;0.10;;;;;;;;;;5014668;28;20022;-63
2022/01/27 01:04:41;;;;;;;1.42;0.38;;;;;;;;;;5014149;28;20044;-63
2022/01/27 01:07:08;;;;;;;1.20;0.13;;;;;;;;;;5014407;28;20386;-63
2022/01/27 01:10:19;;;;;;;0.28;0.10;;;;;;;;;;5014121;28;20120;-63
2022/01/27 01:15:25;;;;;;;0.30;0.10;;;;;;;;;;4992015;28;20037;-63
2022/01/27 01:31:12;;;;;;;1.30;0.27;;;;;;;;;;4992022;28;20426;-63
2022/01/27 01:33:39;;;;;;;1.30;0.30;;;;;;;;;;4991676;28;20088;-63
2022/01/27 01:36:13;;;;;;;1.13;0.20;;;;;;;;;;4991786;28;20445;-63
2022/01/27 01:38:39;;;;;;;1.00;0.20;;;;;;;;;;4991680;28;20050;-63
2022/01/27 01:41:04;;;;;;;0.40;0.20;;;;;;;;;;4991852;28;20544;-63
2022/01/27 01:43:29;;;;;;;0.20;0.10;;;;;;;;;;4991337;28;20536;-63
2022/01/27 01:45:54;;;;;;;0.40;0.10;;;;;;;;;;4990680;28;20256;-63
2022/01/27 01:48:20;;;;;;;0.87;0.10;;;;;;;;;;4991274;28;20263;-63
2022/01/27 01:50:45;;;;;;;0.82;0.30;;;;;;;;;;5001132;28;20766;-63
2022/01/27 01:53:10;;;;;;;0.85;0.20;;;;;;;;;;5013607;28;20026;-63
2022/01/27 01:55:36;;;;;;;1.55;0.40;;;;;;;;;;5013280;28;20064;-63
2022/01/27 01:58:01;;;;;;;2.10;0.40;;;;;;;;;;5013181;28;20101;-63
2022/01/27 02:00:27;;;;;;;1.35;0.17;;;;;;;;;;5013170;28;20044;-63
2022/01/27 02:02:52;;;;;;;1.40;0.20;;;;;;;;;;5013203;28;20022;-63
2022/01/27 02:05:19;;;;;;;0.15;0.10;;;;;;;;;;5043327;23;20056;-64
2022/01/27 02:08:10;;;;;;;1.65;0.30;;;;;;;;;;5069457;28;20392;-62
2022/01/27 02:18:47;;;;;;;0.87;0.10;;;;;;;;;;5069447;28;20024;-62
2022/01/27 02:21:12;;;;;;;0.80;0.20;;;;;;;;;;5069303;28;20242;-62
2022/01/27 02:23:37;;;;;;;1.27;0.30;;;;;;;;;;5069136;28;20032;-62
2022/01/27 02:26:02;;;;;;;0.90;0.50;;;;;;;;;;5069056;28;20460;-62
2022/01/27 02:28:28;;;;;;;1.33;0.20;;;;;;;;;;5069184;28;20308;-62
2022/01/27 02:30:53;;;;;;;4.32;0.65;;;;;;;;;;5069254;28;20241;-62
2022/01/27 02:33:28;;;;;;;1.10;0.23;;;;;;;;;;5068972;28;20082;-62
2022/01/27 02:35:53;;;;;;;0.55;0.08;;;;;;;;;;5068919;28;20296;-62
2022/01/27 02:38:18;;;;;;;1.10;0.20;;;;;;;;;;5068671;28;20033;-62
2022/01/27 02:40:48;;;;;;;1.38;0.50;;;;;;;;;;5068938;28;20039;-62
2022/01/27 02:43:13;;;;;;;0.80;0.10;;;;;;;;;;5068666;28;20028;-62
2022/01/27 02:45:45;;;;;;;0.85;0.28;;;;;;;;;;5068613;28;20086;-62
2022/01/27 02:48:13;;;;;;;0.47;0.20;;;;;;;;;;5068699;28;20044;-62
2022/01/27 02:50:38;;;;;;;0.63;0.10;;;;;;;;;;5068558;28;20021;-62
2022/01/27 02:53:04;;;;;;;0.30;0.15;;;;;;;;;;5068732;28;20024;-62
2022/01/27 02:55:29;;;;;;;1.13;0.30;;;;;;;;;;5068433;28;20056;-62
2022/01/27 02:57:57;;;;;;;0.93;0.30;;;;;;;;;;5068481;28;20357;-62
2022/01/27 03:00:22;;;;;;;1.40;0.10;;;;;;;;;;5068302;28;20013;-62
2022/01/27 03:02:48;;;;;;;1.30;0.20;;;;;;;;;;5068481;28;20159;-62
2022/01/27 03:05:13;;;;;;;2.30;0.30;;;;;;;;;;5068379;28;20024;-62
2022/01/27 03:07:38;;;;;;;0.82;0.10;;;;;;;;;;5068024;28;20051;-62
2022/01/27 03:10:03;;;;;;;1.37;0.23;;;;;;;;;;5068154;28;20428;-62
2022/01/27 03:12:30;;;;;;;1.02;0.40;;;;;;;;;;5067953;28;20242;-62
2022/01/27 03:14:55;;;;;;;0.55;0.17;;;;;;;;;;5068217;28;20087;-62
2022/01/27 03:17:20;;;;;;;0.52;0.25;;;;;;;;;;5065078;28;20464;-62
2022/01/27 03:19:45;;;;;;;1.13;0.45;;;;;;;;;;5054855;28;20056;-62
2022/01/27 03:22:10;;;;;;;0.68;0.20;;;;;;;;;;5054811;28;20024;-62
2022/01/27 03:24:36;;;;;;;2.13;0.20;;;;;;;;;;5054954;28;20354;-62
2022/01/27 03:27:03;;;;;;;1.85;0.55;;;;;;;;;;5054812;28;20115;-62
2022/01/27 03:29:28;;;;;;;0.50;0.17;;;;;;;;;;5054613;28;20376;-62
2022/01/27 03:31:54;;;;;;;0.75;0.40;;;;;;;;;;5054959;28;20024;-62
2022/01/27 03:34:20;;;;;;;0.75;0.30;;;;;;;;;;5054458;28;20029;-62
2022/01/27 03:36:45;;;;;;;1.33;0.50;;;;;;;;;;5054598;28;20100;-62
2022/01/27 03:39:11;;;;;;;1.38;0.30;;;;;;;;;;5054634;28;20509;-62
2022/01/27 03:41:38;;;;;;;1.10;0.40;;;;;;;;;;5054372;28;20104;-62
2022/01/27 03:44:04;;;;;;;2.15;0.65;;;;;;;;;;5054359;28;20017;-62
2022/01/27 03:46:30;;;;;;;1.30;0.20;;;;;;;;;;5053007;28;20428;-63
2022/01/27 03:48:55;;;;;;;1.52;0.40;;;;;;;;;;5054482;28;20136;-62
2022/01/27 03:51:21;;;;;;;0.52;0.15;;;;;;;;;;5052895;28;20013;-62
2022/01/27 03:53:46;;;;;;;1.15;0.30;;;;;;;;;;5054143;28;20021;-62
2022/01/27 03:56:11;;;;;;;1.20;0.40;;;;;;;;;;5054124;28;20023;-62
2022/01/27 03:58:36;;;;;;;1.30;0.40;;;;;;;;;;5054057;28;20146;-62
2022/01/27 04:01:03;;;;;;;1.35;0.25;;;;;;;;;;5054255;28;20272;-62
2022/01/27 04:03:30;;;;;;;1.08;0.20;;;;;;;;;;5053499;28;20051;-62
2022/01/27 04:06:03;;;;;;;1.13;0.32;;;;;;;;;;5053772;28;20484;-62
2022/01/27 04:08:28;;;;;;;1.77;0.20;;;;;;;;;;5053814;28;20066;-63
2022/01/27 04:10:53;;;;;;;2.93;0.10;;;;;;;;;;5054107;28;20017;-62
2022/01/27 04:13:18;;;;;;;2.30;0.30;;;;;;;;;;5053836;28;20097;-62
2022/01/27 04:15:43;;;;;;;1.38;0.30;;;;;;;;;;5053880;28;20411;-62
2022/01/27 04:18:09;;;;;;;1.27;0.30;;;;;;;;;;5053764;28;20017;-62
2022/01/27 04:20:35;;;;;;;0.30;0.10;;;;;;;;;;5053648;28;20028;-62
2022/01/27 04:23:00;;;;;;;1.02;0.30;;;;;;;;;;5054170;28;20460;-62
2022/01/27 04:25:25;;;;;;;0.20;0.20;;;;;;;;;;5053519;28;20514;-62
2022/01/27 04:27:55;;;;;;;1.90;0.13;;;;;;;;;;5053514;28;20029;-62
2022/01/27 04:30:22;;;;;;;0.47;0.20;;;;;;;;;;5052393;28;20246;-62
2022/01/27 04:32:55;;;;;;;0.95;0.10;;;;;;;;;;5053688;28;20032;-62
2022/01/27 04:35:23;;;;;;;2.80;0.50;;;;;;;;;;5053377;28;20013;-62
2022/01/27 04:38:04;;;;;;;2.22;0.38;;;;;;;;;;5053401;28;20502;-62
2022/01/27 04:40:37;;;;;;;0.65;0.20;;;;;;;;;;5053112;28;20021;-62
2022/01/27 04:43:10;;;;;;;0.90;0.20;;;;;;;;;;5053435;28;20048;-62
2022/01/27 04:45:55;;;;;;;1.23;0.32;;;;;;;;;;5053038;28;20267;-62
2022/01/27 04:48:22;;;;;;;1.30;0.60;;;;;;;;;;5052968;28;20029;-62
2022/01/27 04:50:50;;;;;;;1.25;0.17;;;;;;;;;;5053214;28;20487;-62
2022/01/27 04:53:22;;;;;;;1.35;0.40;;;;;;;;;;5053131;28;20024;-62
2022/01/27 04:55:47;;;;;;;0.75;0.13;;;;;;;;;;5052932;28;20013;-62
2022/01/27 04:58:20;;;;;;;0.87;0.20;;;;;;;;;;5052954;28;20013;-62
2022/01/27 05:00:45;;;;;;;2.40;0.20;;;;;;;;;;5052833;28;20617;-62
2022/01/27 05:03:23;;;;;;;0.73;0.22;;;;;;;;;;5052946;28;20027;-62
2022/01/27 05:05:52;;;;;;;1.05;0.32;;;;;;;;;;5052644;28;20040;-62
2022/01/27 05:08:19;;;;;;;0.28;0.17;;;;;;;;;;5052566;28;20025;-62
2022/01/27 05:10:54;;;;;;;2.00;0.20;;;;;;;;;;5052834;28;20017;-62
2022/01/27 05:13:21;;;;;;;1.70;0.43;;;;;;;;;;5051297;28;20039;-62
2022/01/27 05:15:46;;;;;;;0.63;0.20;;;;;;;;;;5052654;28;20021;-62
2022/01/27 05:18:12;;;;;;;1.57;0.33;;;;;;;;;;5052858;28;20070;-62
2022/01/27 05:20:37;;;;;;;1.58;0.30;;;;;;;;;;5052517;28;20769;-62
2022/01/27 05:23:02;;;;;;;0.75;0.22;;;;;;;;;;5052657;28;20085;-62
2022/01/27 05:25:27;;;;;;;0.93;0.10;;;;;;;;;;5052370;28;20513;-62
2022/01/27 05:27:53;;;;;;;0.40;0.15;;;;;;;;;;5052424;28;20323;-62
2022/01/27 05:30:18;;;;;;;0.30;0.20;;;;;;;;;;5052551;28;20021;-62
2022/01/27 05:32:43;;;;;;;1.97;0.30;;;;;;;;;;5052484;28;20356;-62
2022/01/27 05:35:08;;;;;;;2.08;0.20;;;;;;;;;;5052474;28;20257;-62
2022/01/27 05:37:33;;;;;;;0.70;0.23;;;;;;;;;;5052145;28;20506;-62
2022/01/27 05:39:59;;;;;;;1.15;0.43;;;;;;;;;;5052339;28;20264;-62
2022/01/27 05:42:24;;;;;;;1.08;0.30;;;;;;;;;;5051761;28;20025;-62
2022/01/27 05:44:49;;;;;;;0.53;0.20;;;;;;;;;;5052444;28;20076;-62
2022/01/27 05:47:14;;;;;;;0.53;0.27;;;;;;;;;;5052114;28;20023;-62
2022/01/27 05:49:40;;;;;;;0.43;0.20;;;;;;;;;;5052145;28;20721;-62
2022/01/27 05:52:05;;;;;;;0.65;0.55;;;;;;;;;;5052107;28;20482;-62
2022/01/27 05:54:33;;;;;;;0.30;0.10;;;;;;;;;;5051730;28;20017;-62
2022/01/27 05:56:59;;;;;;;0.70;0.20;;;;;;;;;;5052247;28;20045;-62
2022/01/27 05:59:24;;;;;;;0.10;0.10;;;;;;;;;;5051954;28;20048;-63
2022/01/27 06:01:49;;;;;;;1.42;0.35;;;;;;;;;;5051994;28;20725;-62
2022/01/27 06:04:14;;;;;;;1.38;0.30;;;;;;;;;;5051610;28;20072;-62
2022/01/27 06:06:39;;;;;;;1.10;0.20;;;;;;;;;;5051903;28;20044;-62
2022/01/27 06:09:05;;;;;;;1.70;0.40;;;;;;;;;;5050768;28;20025;-62
2022/01/27 06:11:30;;;;;;;0.90;0.20;;;;;;;;;;5051792;28;20018;-62
2022/01/27 06:13:55;;;;;;;1.00;0.20;;;;;;;;;;5051859;28;20749;-62
2022/01/27 06:16:20;;;;;;;0.40;0.20;;;;;;;;;;5051672;28;20350;-62
2022/01/27 06:18:46;;;;;;;0.85;0.20;;;;;;;;;;5051977;28;20021;-62
2022/01/27 06:21:13;;;;;;;1.00;0.10;;;;;;;;;;5051882;28;20017;-62
2022/01/27 06:23:38;;;;;;;0.85;0.20;;;;;;;;;;5051803;28;20163;-62
2022/01/27 06:26:03;;;;;;;1.38;0.20;;;;;;;;;;5051942;28;20431;-62
2022/01/27 06:28:28;;;;;;;0.93;0.38;;;;;;;;;;5051907;28;20469;-62
2022/01/27 06:30:54;;;;;;;0.60;0.10;;;;;;;;;;5051898;28;20013;-62
2022/01/27 06:33:19;;;;;;;1.52;0.47;;;;;;;;;;5050405;28;20275;-62
2022/01/27 06:35:45;;;;;;;1.87;0.20;;;;;;;;;;5051701;28;20407;-62
2022/01/27 06:38:10;;;;;;;0.25;0.10;;;;;;;;;;5051545;28;20257;-62
2022/01/27 06:40:35;;;;;;;1.37;0.30;;;;;;;;;;5051602;28;20382;-62
2022/01/27 06:43:00;;;;;;;1.70;0.47;;;;;;;;;;5051738;28;20053;-62
2022/01/27 06:45:26;;;;;;;1.43;0.40;;;;;;;;;;5051544;28;20092;-62
2022/01/27 06:47:51;;;;;;;1.38;0.10;;;;;;;;;;5051453;28;20828;-62
2022/01/27 06:50:16;;;;;;;1.80;0.52;;;;;;;;;;5051384;28;20124;-62
2022/01/27 06:52:42;;;;;;;1.58;0.50;;;;;;;;;;5052191;28;20066;-63
2022/01/27 06:55:08;;;;;;;0.40;0.10;;;;;;;;;;5055483;28;20017;-62
2022/01/27 06:57:33;;;;;;;1.50;0.20;;;;;;;;;;5054920;28;20052;-62
2022/01/27 06:59:58;;;;;;;1.52;0.20;;;;;;;;;;5055204;28;20488;-63
2022/01/27 07:02:24;;;;;;;0.90;0.20;;;;;;;;;;5055006;28;20031;-63
2022/01/27 07:04:49;;;;;;;0.38;0.17;;;;;;;;;;5055245;28;20032;-62
2022/01/27 07:07:14;;;;;;;1.23;0.20;;;;;;;;;;5054880;28;20049;-62
2022/01/27 07:09:40;;;;;;;0.38;0.10;;;;;;;;;;5054944;28;20028;-62
2022/01/27 07:12:05;;;;;;;0.45;0.20;;;;;;;;;;5055029;28;20032;-63
2022/01/27 07:14:33;;;;;;;1.48;0.22;;;;;;;;;;5054727;28;20021;-63
2022/01/27 07:16:58;;;;;;;1.45;0.30;;;;;;;;;;5055084;28;20075;-62
2022/01/27 07:19:23;;;;;;;1.13;0.20;;;;;;;;;;5054824;28;20029;-62
2022/01/27 07:21:48;;;;;;;1.90;0.20;;;;;;;;;;5054825;28;20036;-63
2022/01/27 07:24:14;;;;;;;0.73;0.22;;;;;;;;;;5054771;28;20052;-62
2022/01/27 07:26:39;;;;;;;2.83;0.35;;;;;;;;;;5054887;28;20059;-62
2022/01/27 07:29:04;;;;;;;0.40;0.10;;;;;;;;;;5054903;28;20017;-63
2022/01/27 07:31:29;;;;;;;1.57;0.30;;;;;;;;;;5053237;28;20280;-62
2022/01/27 07:33:54;;;;;;;1.57;0.30;;;;;;;;;;5054663;28;20242;-62
2022/01/27 07:36:20;;;;;;;0.98;0.30;;;;;;;;;;5054304;28;20341;-62
2022/01/27 07:38:45;;;;;;;0.22;0.20;;;;;;;;;;5054885;28;20028;-63
2022/01/27 07:41:14;;;;;;;0.30;0.20;;;;;;;;;;5054574;28;20376;-62
2022/01/27 07:43:40;;;;;;;1.67;0.28;;;;;;;;;;5054378;28;20074;-62
2022/01/27 07:46:05;;;;;;;0.68;0.40;;;;;;;;;;5054321;28;20029;-62
2022/01/27 07:48:30;;;;;;;1.50;0.45;;;;;;;;;;5054167;28;20048;-62
2022/01/27 07:50:55;;;;;;;1.03;0.20;;;;;;;;;;5036605;28;20045;-62
2022/01/27 07:53:21;;;;;;;1.37;0.40;;;;;;;;;;5047465;28;20274;-62
2022/01/27 07:55:47;;;;;;;1.38;0.30;;;;;;;;;;5053545;28;20246;-62
2022/01/27 07:58:12;;;;;;;0.88;0.20;;;;;;;;;;5035423;28;20024;-63
2022/01/27 08:00:38;;;;;;;1.00;0.30;;;;;;;;;;5033669;28;20435;-63
2022/01/27 08:03:04;;;;;;;1.30;0.40;;;;;;;;;;5045258;28;20265;-62
2022/01/27 08:05:29;;;;;;;0.10;0.00;;;;;;;;;;5053482;28;20334;-63
2022/01/27 08:07:54;;;;;;;1.25;0.20;;;;;;;;;;5053936;28;20033;-62
2022/01/27 08:10:19;;;;;;;0.52;0.10;;;;;;;;;;5053726;28;20036;-62
2022/01/27 08:12:44;;;;;;;0.40;0.20;;;;;;;;;;5053888;28;20021;-63
2022/01/27 08:15:11;;;;;;;0.93;0.20;;;;;;;;;;5053866;28;20276;-63
2022/01/27 08:17:37;;;;;;;1.27;0.25;;;;;;;;;;5053690;28;20282;-63
2022/01/27 08:20:02;;;;;;;2.05;0.55;;;;;;;;;;5053622;28;20535;-62
2022/01/27 08:22:27;;;;;;;1.85;0.17;;;;;;;;;;5053395;28;20433;-62
2022/01/27 08:24:52;;;;;;;1.05;0.32;;;;;;;;;;5053825;28;20025;-62
2022/01/27 08:27:20;;;;;;;0.32;0.20;;;;;;;;;;5053478;28;20032;-62
2022/01/27 08:29:52;;;;;;;2.80;0.43;;;;;;;;;;5053618;28;20067;-62
2022/01/27 08:32:27;;;;;;;1.45;0.30;;;;;;;;;;5053333;28;20097;-62
2022/01/27 08:34:53;;;;;;;0.95;0.30;;;;;;;;;;5053669;28;20017;-63
2022/01/27 08:37:18;;;;;;;1.03;0.20;;;;;;;;;;5053354;28;20029;-62
2022/01/27 08:39:44;;;;;;;0.85;0.20;;;;;;;;;;5053357;28;20257;-63
2022/01/27 08:42:10;;;;;;;0.88;0.10;;;;;;;;;;5053201;28;20037;-63
2022/01/27 08:44:36;;;;;;;0.43;0.20;;;;;;;;;;5053132;28;20040;-63
2022/01/27 08:47:01;;;;;;;1.17;0.45;;;;;;;;;;5053620;28;20056;-62
2022/01/27 08:49:27;;;;;;;1.85;0.40;;;;;;;;;;5052970;28;20107;-62
2022/01/27 08:51:53;;;;;;;1.02;0.15;;;;;;;;;;5053130;28;20025;-63
2022/01/27 08:54:18;;;;;;;0.98;0.20;;;;;;;;;;5052766;28;20025;-62
2022/01/27 08:56:43;;;;;;;1.75;0.20;;;;;;;;;;5053099;28;20025;-63
2022/01/27 08:59:09;;;;;;;1.13;0.25;;;;;;;;;;5053129;28;20035;-62
2022/01/27 09:01:34;;;;;;;0.77;0.40;;;;;;;;;;5052788;28;20385;-63
2022/01/27 09:03:59;;;;;;;0.63;0.15;;;;;;;;;;5052839;28;20083;-63
2022/01/27 09:06:25;;;;;;;0.63;0.20;;;;;;;;;;5052540;28;20044;-63
2022/01/27 09:08:50;;;;;;;0.60;0.10;;;;;;;;;;5052994;28;20014;-63
2022/01/27 09:11:16;;;;;;;2.28;0.50;;;;;;;;;;5052776;28;20013;-63
2022/01/27 09:13:42;;;;;;;0.47;0.10;;;;;;;;;;5052699;28;20476;-63
2022/01/27 09:16:08;;;;;;;0.73;0.50;;;;;;;;;;5052133;28;20021;-63
2022/01/27 09:18:33;;;;;;;0.13;0.05;;;;;;;;;;5052510;28;20036;-63
2022/01/27 09:21:01;;;;;;;1.58;0.28;;;;;;;;;;5052754;28;20028;-62
2022/01/27 09:23:27;;;;;;;0.85;0.40;;;;;;;;;;5052672;28;20096;-63
2022/01/27 09:26:02;;;;;;;1.08;0.20;;;;;;;;;;5051118;28;20116;-63
2022/01/27 09:28:27;;;;;;;0.60;0.20;;;;;;;;;;5052250;28;20479;-63
2022/01/27 09:30:52;;;;;;;0.40;0.20;;;;;;;;;;5052629;28;20025;-62
2022/01/27 09:33:17;;;;;;;1.43;0.10;;;;;;;;;;5051739;28;20253;-63
2022/01/27 09:35:42;;;;;;;0.30;0.20;;;;;;;;;;5052376;28;20682;-62
2022/01/27 09:38:08;;;;;;;1.10;0.10;;;;;;;;;;5052536;28;20024;-63
2022/01/27 09:40:34;;;;;;;0.80;0.20;;;;;;;;;;5052418;28;20764;-63
2022/01/27 09:43:00;;;;;;;1.38;0.22;;;;;;;;;;5052384;28;20465;-63
2022/01/27 09:45:27;;;;;;;1.25;0.20;;;;;;;;;;5052148;28;20028;-63
2022/01/27 09:47:59;;;;;;;0.68;0.20;;;;;;;;;;5052065;28;20448;-63
2022/01/27 09:50:35;;;;;;;0.28;0.10;;;;;;;;;;5051914;28;20100;-63
2022/01/27 09:53:01;;;;;;;0.30;0.10;;;;;;;;;;5047211;28;20062;-62
2022/01/27 09:55:26;;;;;;;0.80;0.20;;;;;;;;;;5058710;28;20017;-62
2022/01/27 09:57:52;;;;;;;1.20;0.20;;;;;;;;;;5042657;28;20091;-63
2022/01/27 10:00:17;;;;;;;2.08;0.30;;;;;;;;;;5038241;28;20480;-63
2022/01/27 10:03:02;;;;;;;1.98;0.20;;;;;;;;;;5050975;28;20027;-62
2022/01/27 10:05:28;;;;;;;0.98;0.15;;;;;;;;;;5043404;28;20017;-63
2022/01/27 10:07:59;;;;;;;1.05;0.20;;;;;;;;;;5051906;28;20041;-63
2022/01/27 10:10:26;;;;;;;0.47;0.03;;;;;;;;;;5051741;28;20025;-63
2022/01/27 10:12:53;;;;;;;0.20;0.10;;;;;;;;;;5052109;28;20016;-63
2022/01/27 10:15:20;;;;;;;1.08;0.20;;;;;;;;;;5050544;28;20017;-63
2022/01/27 10:18:04;;;;;;;0.65;0.10;;;;;;;;;;5039101;28;20017;-62
2022/01/27 10:20:30;;;;;;;1.67;0.17;;;;;;;;;;5036199;28;20547;-62
2022/01/27 10:23:15;;;;;;;0.37;0.17;;;;;;;;;;5063154;28;20055;-62
2022/01/27 10:25:49;;;;;;;0.40;0.10;;;;;;;;;;5051396;28;20399;-62
2022/01/27 10:28:21;;;;;;;;;;;;;;;;;;5053683;28;20025;-63
2022/01/27 10:30:52;;;;;;;0.95;0.15;;;;;;;;;;5055885;28;19936;-62
2022/01/27 10:33:18;;;;;;;0.52;0.20;;;;;;;;;;5054445;28;20056;-62
2022/01/27 10:35:43;;;;;;;0.73;0.20;;;;;;;;;;5056034;28;20336;-63
2022/01/27 10:38:09;;;;;;;1.75;0.30;;;;;;;;;;5055591;28;20021;-62
2022/01/27 10:40:46;;;;;;;0.45;0.10;;;;;;;;;;5055571;28;20021;-62
2022/01/27 10:43:15;;;;;;;1.05;0.17;;;;;;;;;;5055671;28;20014;-63
2022/01/27 10:46:00;;;;;;;0.43;0.22;;;;;;;;;;5055520;28;20052;-62
2022/01/27 10:48:28;;;;;;;0.73;0.20;;;;;;;;;;5052962;28;20497;-62
2022/01/27 10:51:08;;;;;;;0.95;0.20;;;;;;;;;;5054326;28;20061;-62
2022/01/27 10:53:45;;;;;;;2.35;0.28;;;;;;;;;;5047065;28;20025;-62
2022/01/27 10:56:14;;;;;;;1.08;0.20;;;;;;;;;;5049490;28;20361;-62
2022/01/27 10:58:41;;;;;;;0.47;0.20;;;;;;;;;;5046526;28;20014;-62
2022/01/27 11:01:07;;;;;;;0.28;0.00;;;;;;;;;;5037927;28;20021;-63
2022/01/27 11:03:32;;;;;;;0.55;0.10;;;;;;;;;;5038905;28;20037;-63
2022/01/27 11:06:05;;;;;;;0.75;0.30;;;;;;;;;;5040058;28;20048;-62
2022/01/27 11:08:30;;;;;;;0.98;0.20;;;;;;;;;;5045611;28;20014;-62
2022/01/27 11:10:56;;;;;;;1.02;0.20;;;;;;;;;;5039601;28;20433;-62
2022/01/27 11:13:23;;;;;;;0.20;0.13;;;;;;;;;;5045633;28;20036;-62
2022/01/27 11:15:52;;;;;;;0.85;0.10;;;;;;;;;;5042110;28;20022;-63
2022/01/27 11:18:20;;;;;;;0.90;0.00;;;;;;;;;;5052344;28;20063;-62
2022/01/27 11:21:28;;;;;;;0.57;0.05;;;;;;;;;;5038735;28;20029;-62
2022/01/27 11:26:10;;;;;;;0.05;0.00;;;;;;;;;;5054938;28;20514;-62
2022/01/27 11:28:36;;;;;;;0.75;0.15;;;;;;;;;;5054642;28;20024;-62
2022/01/27 11:31:08;;;;;;;0.85;0.10;;;;;;;;;;5054817;28;20045;-62
2022/01/27 11:33:34;;;;;;;0.70;0.30;;;;;;;;;;5054557;28;20063;-63
2022/01/27 11:36:08;;;;;;;0.70;0.10;;;;;;;;;;5054885;28;20017;-62
2022/01/27 11:38:33;;;;;;;0.22;0.00;;;;;;;;;;5053924;28;20420;-62
2022/01/27 11:40:59;;;;;;;0.38;0.10;;;;;;;;;;5053301;28;20070;-62
2022/01/27 11:43:33;;;;;;;0.60;0.20;;;;;;;;;;5054716;28;20029;-62
2022/01/27 11:46:15;;;;;;;0.50;0.40;;;;;;;;;;5054322;28;20021;-62
2022/01/27 11:48:41;;;;;;;1.27;0.35;;;;;;;;;;5054386;28;20075;-62
2022/01/27 11:51:10;;;;;;;0.08;0.00;;;;;;;;;;5054458;28;20021;-62
2022/01/27 11:53:43;;;;;;;1.70;0.60;;;;;;;;;;5046672;28;20104;-62
2022/01/27 11:56:08;;;;;;;1.50;0.10;;;;;;;;;;5034210;28;20104;-62
2022/01/27 11:59:02;;;;;;;0.22;0.03;;;;;;;;;;5049165;28;20103;-62
2022/01/27 12:01:29;;;;;;;1.90;0.15;;;;;;;;;;5053258;28;20103;-62
2022/01/27 12:04:00;;;;;;;0.60;0.10;;;;;;;;;;5053889;28;20071;-62
2022/01/27 12:06:25;;;;;;;0.50;0.03;;;;;;;;;;5053829;28;20121;-62
2022/01/27 12:09:10;;;;;;;0.10;0.00;;;;;;;;;;5052799;28;20476;-62
2022/01/27 12:11:44;;;;;;;0.47;0.20;;;;;;;;;;5053592;28;20606;-62
2022/01/27 12:14:09;;;;;;;0.00;0.00;;;;;;;;;;5053869;28;20028;-62
2022/01/27 12:19:00;;;;;;;0.67;0.13;;;;;;;;;;5034411;28;20108;-62
2022/01/27 12:21:28;;;;;;;0.75;0.10;;;;;;;;;;5033557;28;20780;-62
2022/01/27 12:24:16;;;;;;;0.43;0.20;;;;;;;;;;5033530;28;20025;-62
2022/01/27 12:26:53;;;;;;;0.20;0.00;;;;;;;;;;5032327;28;20120;-62
2022/01/27 12:29:22;;;;;;;0.17;0.10;;;;;;;;;;5033538;28;20512;-62
2022/01/27 12:31:48;;;;;;;0.63;0.22;;;;;;;;;;5033618;28;20032;-62
2022/01/27 12:34:13;;;;;;;0.08;0.00;;;;;;;;;;5033498;28;20017;-62
2022/01/27 12:36:38;;;;;;;0.30;0.00;;;;;;;;;;5033479;28;20033;-62
2022/01/27 12:39:03;;;;;;;0.20;0.00;;;;;;;;;;5033651;28;20108;-62
2022/01/27 12:41:35;;;;;;;0.47;0.30;;;;;;;;;;5033630;28;20028;-62
2022/01/27 12:44:09;;;;;;;0.95;0.15;;;;;;;;;;5033337;28;20255;-62
2022/01/27 12:46:35;;;;;;;0.40;0.10;;;;;;;;;;5033130;28;20072;-62
2022/01/27 12:49:01;;;;;;;1.17;0.10;;;;;;;;;;5033454;28;20009;-62
2022/01/27 12:51:27;;;;;;;0.25;0.22;;;;;;;;;;5031023;28;20019;-63
2022/01/27 12:53:59;;;;;;;0.37;0.27;;;;;;;;;;5033269;28;20026;-62
2022/01/27 12:56:24;;;;;;;0.65;0.10;;;;;;;;;;5032923;28;20251;-62
2022/01/27 12:58:49;;;;;;;1.07;0.47;;;;;;;;;;5033302;28;20028;-62
2022/01/27 13:01:16;;;;;;;0.77;0.00;;;;;;;;;;5031532;28;20670;-62
2022/01/27 13:03:58;;;;;;;1.13;0.52;;;;;;;;;;5050802;28;20029;-62
2022/01/27 13:06:27;;;;;;;0.05;0.05;;;;;;;;;;5048203;28;20501;-62
2022/01/27 13:09:08;;;;;;;1.05;0.08;;;;;;;;;;5052971;28;20024;-62
2022/01/27 13:11:34;;;;;;;0.20;0.10;;;;;;;;;;5052650;28;20465;-62
2022/01/27 13:14:06;;;;;;;0.63;0.10;;;;;;;;;;5052708;28;20092;-62
2022/01/27 13:16:39;;;;;;;4.95;0.20;;;;;;;;;;5052573;28;20013;-62
2022/01/27 13:19:10;;;;;;;0.55;0.10;;;;;;;;;;5052866;28;20036;-62
2022/01/27 13:21:37;;;;;;;0.55;0.10;;;;;;;;;;5052467;28;20024;-62
2022/01/27 13:24:04;;;;;;;0.20;0.00;;;;;;;;;;5052553;28;20024;-62
2022/01/27 13:26:29;;;;;;;0.43;0.03;;;;;;;;;;5052181;28;20028;-62
2022/01/27 13:28:56;;;;;;;0.30;0.13;;;;;;;;;;5052703;28;20376;-62
2022/01/27 13:31:21;;;;;;;1.27;0.22;;;;;;;;;;5052249;28;20289;-62
2022/01/27 13:33:47;;;;;;;0.85;0.10;;;;;;;;;;5052366;28;20094;-62
2022/01/27 13:36:19;;;;;;;1.35;0.10;;;;;;;;;;5052627;28;20032;-62
2022/01/27 13:39:01;;;;;;;0.60;0.20;;;;;;;;;;5052683;28;20052;-62
2022/01/27 13:41:27;;;;;;;0.40;0.10;;;;;;;;;;5052302;28;20021;-62
2022/01/27 13:43:54;;;;;;;0.52;0.17;;;;;;;;;;5052170;28;20024;-63
2022/01/27 13:46:38;;;;;;;0.13;0.10;;;;;;;;;;5051970;28;20025;-62
2022/01/27 13:49:07;;;;;;;0.77;0.10;;;;;;;;;;5038533;28;20021;-62
2022/01/27 13:51:33;;;;;;;0.75;0.10;;;;;;;;;;5052224;28;20244;-62
2022/01/27 13:54:03;;;;;;;0.40;0.20;;;;;;;;;;5038391;28;20025;-62
2022/01/27 13:56:37;;;;;;;0.52;0.10;;;;;;;;;;5040799;28;20026;-63
2022/01/27 13:59:16;;;;;;;0.20;0.10;;;;;;;;;;5032619;28;20075;-62
2022/01/27 14:01:41;;;;;;;0.10;0.03;;;;;;;;;;5041852;28;20057;-60
2022/01/27 14:04:07;;;;;;;0.40;0.10;;;;;;;;;;5036922;28;20126;-61
2022/01/27 14:06:45;;;;;;;0.73;0.13;;;;;;;;;;5033221;28;20081;-59
2022/01/27 14:09:14;;;;;;;0.45;0.10;;;;;;;;;;5031589;28;20018;-60
2022/01/27 14:11:41;;;;;;;0.28;0.10;;;;;;;;;;5049576;28;20017;-60
2022/01/27 14:14:07;;;;;;;0.52;0.10;;;;;;;;;;5048905;28;20362;-61
2022/01/27 14:16:33;;;;;;;1.42;0.13;;;;;;;;;;5033662;28;20020;-60
2022/01/27 14:19:14;;;;;;;0.45;0.00;;;;;;;;;;5035652;28;20053;-60
2022/01/27 14:21:44;;;;;;;0.10;0.00;;;;;;;;;;5044251;28;20512;-60
2022/01/27 14:24:13;;;;;;;0.30;0.15;;;;;;;;;;5034910;28;20034;-59
2022/01/27 14:26:44;;;;;;;1.77;0.25;;;;;;;;;;5037191;28;20774;-59
2022/01/27 14:29:09;;;;;;;0.13;0.00;;;;;;;;;;5031950;28;20021;-60
2022/01/27 14:31:36;;;;;;;1.87;0.17;;;;;;;;;;5037148;28;20520;-60
2022/01/27 14:34:01;;;;;;;0.38;0.10;;;;;;;;;;5051610;28;20063;-60
2022/01/27 14:36:26;;;;;;;0.30;0.10;;;;;;;;;;5051528;28;20092;-60
2022/01/27 14:38:52;;;;;;;1.00;0.22;;;;;;;;;;5059638;28;20119;-60
2022/01/27 14:41:17;;;;;;;0.10;0.10;;;;;;;;;;5054876;28;20368;-60
2022/01/27 14:43:43;;;;;;;0.30;0.15;;;;;;;;;;5032017;28;20380;-60
2022/01/27 14:46:09;;;;;;;0.98;0.10;;;;;;;;;;5034357;28;20107;-59
2022/01/27 14:48:38;;;;;;;0.68;0.10;;;;;;;;;;5033656;28;20022;-60
2022/01/27 14:51:04;;;;;;;1.02;0.10;;;;;;;;;;5037988;28;20052;-60
2022/01/27 14:53:29;;;;;;;0.32;0.10;;;;;;;;;;5038812;28;20539;-60
2022/01/27 14:55:54;;;;;;;0.68;0.20;;;;;;;;;;5035261;28;20026;-63
2022/01/27 14:58:19;;;;;;;0.85;0.10;;;;;;;;;;5038103;28;20113;-62
2022/01/27 15:00:44;;;;;;;1.80;0.10;;;;;;;;;;5043603;28;20045;-65
2022/01/27 15:03:10;;;;;;;0.23;0.20;;;;;;;;;;5042729;28;20263;-64
2022/01/27 15:05:35;;;;;;;2.15;0.10;;;;;;;;;;5044692;28;20264;-62
2022/01/27 15:08:00;;;;;;;0.60;0.00;;;;;;;;;;5036610;28;20465;-63
2022/01/27 15:10:26;;;;;;;2.40;0.10;;;;;;;;;;5031392;28;20021;-64
2022/01/27 15:12:52;;;;;;;0.20;0.20;;;;;;;;;;5033517;28;20025;-63
2022/01/27 15:20:46;;;;;;;;;;;;;;;;;;5038203;28;20032;-61
2022/01/27 15:23:13;;;;;;;0.30;0.10;;;;;;;;;;5043711;28;19991;-62
2022/01/27 15:25:38;;;;;;;2.22;0.00;;;;;;;;;;5037647;28;20056;-62
2022/01/27 15:28:04;;;;;;;0.00;0.00;;;;;;;;;;5038050;28;20096;-60